createdAt,value
2019-02-21T00:01:45.028Z,5.33
2019-02-21T00:04:13.403Z,5.28
2019-02-21T00:06:41.770Z,5.27
2019-02-21T00:09:10.236Z,5.43
2019-02-21T00:11:38.546Z,5.49
2019-02-21T00:14:07.053Z,5.35
2019-02-21T00:16:35.371Z,5.29
2019-02-21T00:19:03.661Z,5.37
2019-02-21T00:21:32.061Z,5.41
2019-02-21T00:24:00.362Z,5.51
2019-02-21T00:26:28.681Z,5.77
2019-02-21T00:28:56.989Z,5.72
2019-02-21T00:31:25.299Z,5.85
2019-02-21T00:33:53.855Z,5.79
2019-02-21T00:36:22.165Z,5.78
2019-02-21T00:38:50.577Z,5.81
2019-02-21T00:41:18.881Z,5.86
2019-02-21T00:43:47.188Z,5.82
2019-02-21T00:46:15.513Z,5.77
2019-02-21T00:48:43.813Z,5.70
2019-02-21T00:51:12.170Z,5.64
2019-02-21T00:53:40.472Z,5.48
2019-02-21T00:56:08.850Z,5.66
2019-02-21T00:58:37.173Z,5.75
2019-02-21T01:01:05.553Z,5.49
2019-02-21T01:03:33.880Z,5.55
2019-02-21T01:06:02.221Z,5.31
2019-02-21T01:08:30.536Z,5.41
2019-02-21T01:10:58.966Z,5.63
2019-02-21T01:13:27.299Z,5.43
2019-02-21T01:15:55.609Z,5.35
2019-02-21T01:18:23.915Z,5.36
2019-02-21T01:20:52.300Z,5.41
2019-02-21T01:23:20.688Z,5.31
2019-02-21T01:25:49.399Z,5.19
2019-02-21T01:28:17.730Z,5.25
2019-02-21T01:30:56.419Z,5.28
2019-02-21T01:33:16.500Z,5.33
2019-02-21T01:35:44.832Z,5.45
2019-02-21T01:38:13.143Z,5.23
2019-02-21T01:40:41.461Z,5.04
2019-02-21T01:43:09.761Z,5.03
2019-02-21T01:45:38.168Z,5.17
2019-02-21T01:48:06.472Z,5.19
2019-02-21T01:50:35.159Z,5.44
2019-02-21T01:53:03.768Z,5.39
2019-02-21T01:55:32.081Z,5.22
2019-02-21T01:58:00.711Z,5.15
2019-02-21T02:00:29.009Z,5.32
2019-02-21T02:02:57.816Z,5.36
2019-02-21T02:05:26.128Z,5.27
2019-02-21T02:07:54.451Z,5.30
2019-02-21T02:10:22.827Z,5.43
2019-02-21T02:12:53.580Z,5.45
2019-02-21T02:15:21.331Z,5.37
2019-02-21T02:17:49.639Z,5.34
2019-02-21T02:20:17.940Z,5.29
2019-02-21T02:22:46.265Z,5.39
2019-02-21T02:25:14.641Z,5.37
2019-02-21T02:27:42.968Z,5.31
2019-02-21T02:30:11.528Z,5.34
2019-02-21T02:32:39.802Z,5.49
2019-02-21T02:35:08.622Z,5.40
2019-02-21T02:37:36.932Z,5.36
2019-02-21T02:40:06.618Z,5.18
2019-02-21T02:42:35.276Z,5.24
2019-02-21T02:45:04.126Z,5.45
2019-02-21T02:47:32.797Z,5.35
2019-02-21T02:50:01.133Z,5.34
2019-02-21T02:52:29.582Z,5.49
2019-02-21T02:54:58.209Z,5.57
2019-02-21T02:57:26.509Z,5.33
2019-02-21T02:59:54.835Z,5.44
2019-02-21T03:02:23.146Z,5.46
2019-02-21T03:04:51.525Z,5.31
2019-02-21T03:07:19.875Z,5.22
2019-02-21T03:09:48.162Z,5.39
2019-02-21T03:12:16.471Z,5.34
2019-02-21T03:14:44.770Z,5.33
2019-02-21T03:17:13.559Z,5.42
2019-02-21T03:19:41.910Z,5.51
2019-02-21T03:22:10.279Z,5.39
2019-02-21T03:24:38.616Z,5.39
2019-02-21T03:27:07.163Z,5.46
2019-02-21T03:29:35.513Z,5.47
2019-02-21T03:32:03.820Z,5.58
2019-02-21T03:34:32.139Z,5.52
2019-02-21T03:37:00.442Z,5.41
2019-02-21T03:39:28.748Z,5.56
2019-02-21T03:41:57.354Z,5.37
2019-02-21T03:44:25.662Z,5.33
2019-02-21T03:46:54.060Z,5.30
2019-02-21T03:49:22.365Z,5.22
2019-02-21T03:51:50.761Z,5.22
2019-02-21T03:54:19.367Z,5.30
2019-02-21T03:56:47.776Z,5.30
2019-02-21T03:59:16.435Z,5.29
2019-02-21T04:01:44.728Z,5.25
2019-02-21T04:04:13.056Z,5.24
2019-02-21T04:06:41.366Z,5.37
2019-02-21T04:09:09.692Z,5.37
2019-02-21T04:11:37.997Z,5.23
2019-02-21T04:14:06.626Z,5.11
2019-02-21T04:16:34.948Z,5.22
2019-02-21T04:19:03.248Z,5.07
2019-02-21T04:21:31.606Z,5.08
2019-02-21T04:23:59.913Z,5.33
2019-02-21T04:26:28.217Z,5.15
2019-02-21T04:28:56.545Z,4.88
2019-02-21T04:31:24.846Z,4.80
2019-02-21T04:33:53.177Z,4.67
2019-02-21T04:36:23.435Z,4.68
2019-02-21T04:38:51.506Z,4.75
2019-02-21T04:41:19.835Z,4.68
2019-02-21T04:43:48.431Z,4.72
2019-02-21T04:46:16.777Z,4.73
2019-02-21T04:48:45.401Z,4.65
2019-02-21T04:51:13.709Z,4.67
2019-02-21T04:53:42.034Z,4.67
2019-02-21T04:56:10.337Z,4.66
2019-02-21T04:58:38.663Z,4.67
2019-02-21T05:01:07.033Z,4.71
2019-02-21T05:03:35.850Z,4.73
2019-02-21T05:06:04.159Z,4.67
2019-02-21T05:08:32.466Z,4.67
2019-02-21T05:11:00.796Z,4.66
2019-02-21T05:13:29.098Z,4.61
2019-02-21T05:15:57.417Z,4.66
2019-02-21T05:18:25.724Z,4.66
2019-02-21T05:20:54.070Z,4.62
2019-02-21T05:23:22.495Z,4.71
2019-02-21T05:25:50.790Z,4.76
2019-02-21T05:28:20.748Z,4.68
2019-02-21T05:30:50.710Z,4.39
2019-02-21T05:36:20.671Z,4.52
2019-02-21T05:39:02.899Z,4.60
2019-02-21T05:41:44.885Z,4.44
2019-02-21T05:44:29.870Z,4.36
2019-02-21T05:46:59.811Z,4.30
2019-02-21T05:49:35.561Z,4.12
2019-02-21T05:52:20.173Z,4.18
2019-02-21T05:54:58.898Z,4.02
2019-02-21T05:57:34.620Z,4.20
2019-02-21T06:00:07.807Z,4.14
2019-02-21T06:02:37.752Z,4.08
2019-02-21T06:05:19.252Z,4.18
2019-02-21T06:07:51.414Z,4.17
2019-02-21T06:10:21.374Z,3.96
2019-02-21T06:12:54.094Z,4.00
2019-02-21T06:15:26.658Z,4.09
2019-02-21T06:18:05.547Z,4.17
2019-02-21T06:20:38.526Z,4.21
2019-02-21T06:23:08.496Z,4.28
2019-02-21T06:25:50.570Z,4.36
2019-02-21T06:28:13.206Z,4.33
2019-02-21T06:30:43.560Z,4.40
2019-02-21T06:33:11.860Z,4.21
2019-02-21T06:35:40.176Z,4.37
2019-02-21T06:38:08.485Z,4.21
2019-02-21T06:40:36.801Z,4.42
2019-02-21T06:43:05.265Z,4.29
2019-02-21T06:45:33.586Z,4.40
2019-02-21T06:48:01.895Z,4.36
2019-02-21T06:50:30.197Z,4.42
2019-02-21T06:52:58.535Z,4.43
2019-02-21T06:55:26.856Z,4.40
2019-02-21T06:57:55.198Z,5.05
2019-02-21T07:00:23.569Z,4.33
2019-02-21T07:02:54.218Z,4.40
2019-02-21T07:05:21.923Z,4.47
2019-02-21T07:07:50.220Z,4.63
2019-02-21T07:10:18.630Z,4.43
2019-02-21T07:12:46.932Z,4.66
2019-02-21T07:15:15.295Z,4.62
2019-02-21T07:17:49.234Z,4.65
2019-02-21T07:20:13.600Z,4.84
2019-02-21T07:22:42.097Z,4.94
2019-02-21T07:25:12.108Z,5.07
2019-02-21T07:27:40.425Z,5.21
2019-02-21T07:30:19.522Z,5.22
2019-02-21T07:32:40.496Z,5.23
2019-02-21T07:35:08.799Z,5.02
2019-02-21T07:37:37.139Z,5.16
2019-02-21T07:40:07.465Z,5.21
2019-02-21T07:42:35.766Z,5.43
2019-02-21T07:45:04.604Z,5.41
2019-02-21T07:47:32.906Z,5.45
2019-02-21T07:50:01.239Z,5.49
2019-02-21T07:52:29.892Z,5.50
2019-02-21T07:55:01.806Z,5.59
2019-02-21T07:57:28.271Z,5.80
2019-02-21T07:59:56.585Z,5.89
2019-02-21T08:02:24.906Z,5.95
2019-02-21T08:04:53.249Z,6.06
2019-02-21T08:07:21.914Z,6.32
2019-02-21T08:09:50.216Z,6.26
2019-02-21T08:12:18.525Z,6.20
2019-02-21T08:14:47.802Z,6.35
2019-02-21T08:17:16.479Z,6.54
2019-02-21T08:19:45.153Z,6.30
2019-02-21T08:22:13.457Z,6.94
2019-02-21T08:24:41.767Z,7.17
2019-02-21T08:27:10.085Z,7.20
2019-02-21T08:29:38.430Z,7.46
2019-02-21T08:32:06.764Z,6.91
2019-02-21T08:34:36.705Z,7.59
2019-02-21T08:37:05.097Z,7.83
2019-02-21T08:39:33.409Z,7.98
2019-02-21T08:42:01.814Z,7.83
2019-02-21T08:44:30.407Z,7.73
2019-02-21T08:46:58.747Z,7.83
2019-02-21T08:49:27.583Z,7.67
2019-02-21T08:51:55.889Z,7.73
2019-02-21T08:54:24.206Z,7.79
2019-02-21T08:56:53.067Z,7.90
2019-02-21T08:59:21.465Z,7.74
2019-02-21T09:01:49.833Z,7.94
2019-02-21T09:04:26.921Z,8.21
2019-02-21T09:06:48.289Z,8.09
2019-02-21T09:09:16.902Z,7.86
2019-02-21T09:11:45.286Z,7.94
2019-02-21T09:14:14.061Z,8.14
2019-02-21T09:16:42.668Z,8.27
2019-02-21T09:19:11.345Z,8.32
2019-02-21T09:21:40.085Z,8.22
2019-02-21T09:24:08.817Z,8.44
2019-02-21T09:26:37.130Z,8.80
2019-02-21T09:29:05.429Z,8.70
2019-02-21T09:31:33.825Z,8.96
2019-02-21T09:34:02.219Z,9.16
2019-02-21T09:36:30.567Z,10.01
2019-02-21T09:38:59.146Z,9.83
2019-02-21T09:41:28.674Z,10.03
2019-02-21T09:43:57.528Z,9.99
2019-02-21T09:46:25.902Z,10.11
2019-02-21T09:48:54.253Z,10.35
2019-02-21T09:51:22.637Z,10.21
2019-02-21T09:53:50.952Z,10.80
2019-02-21T09:56:29.537Z,10.67
2019-02-21T09:58:49.328Z,10.31
2019-02-21T10:01:17.669Z,10.57
2019-02-21T10:03:46.301Z,10.67
2019-02-21T10:06:14.631Z,10.58
2019-02-21T10:08:42.958Z,10.74
2019-02-21T10:11:11.608Z,10.71
2019-02-21T10:13:40.142Z,10.98
2019-02-21T10:16:08.824Z,10.95
2019-02-21T10:18:37.519Z,11.08
2019-02-21T10:21:05.927Z,11.06
2019-02-21T10:23:34.239Z,11.31
2019-02-21T10:26:02.534Z,11.42
2019-02-21T10:28:32.560Z,11.44
2019-02-21T10:31:01.355Z,11.65
2019-02-21T10:33:29.686Z,12.08
2019-02-21T10:36:00.465Z,11.72
2019-02-21T10:38:28.282Z,11.73
2019-02-21T10:40:56.633Z,11.72
2019-02-21T10:43:24.943Z,11.76
2019-02-21T10:45:53.283Z,11.93
2019-02-21T10:48:21.579Z,11.99
2019-02-21T10:50:49.906Z,11.89
2019-02-21T10:53:18.222Z,11.71
2019-02-21T10:55:48.086Z,11.88
2019-02-21T10:58:16.619Z,11.71
2019-02-21T11:00:45.146Z,12.11
2019-02-21T11:03:13.497Z,11.97
2019-02-21T11:05:41.803Z,12.32
2019-02-21T11:08:10.132Z,12.83
2019-02-21T11:10:38.853Z,12.51
2019-02-21T11:13:07.154Z,12.84
2019-02-21T11:15:35.555Z,13.16
2019-02-21T11:18:03.993Z,12.65
2019-02-21T11:20:32.380Z,12.67
2019-02-21T11:23:03.198Z,12.53
2019-02-21T11:25:31.503Z,12.19
2019-02-21T11:27:59.822Z,12.42
2019-02-21T11:30:28.190Z,12.68
2019-02-21T11:32:56.501Z,13.12
2019-02-21T11:35:24.888Z,13.25
2019-02-21T11:37:53.189Z,14.34
2019-02-21T11:40:21.586Z,13.81
2019-02-21T11:42:49.883Z,13.40
2019-02-21T11:45:21.106Z,14.40
2019-02-21T11:47:49.428Z,13.98
2019-02-21T11:50:19.210Z,14.18
2019-02-21T11:52:47.598Z,14.49
2019-02-21T11:55:23.955Z,13.88
2019-02-21T11:57:52.327Z,13.94
2019-02-21T12:00:28.957Z,14.13
2019-02-21T12:02:57.304Z,14.41
2019-02-21T12:05:31.502Z,14.50
2019-02-21T12:07:55.808Z,14.41
2019-02-21T12:10:24.203Z,13.94
2019-02-21T12:12:52.510Z,13.78
2019-02-21T12:15:20.833Z,13.66
2019-02-21T12:17:49.143Z,13.44
2019-02-21T12:20:18.800Z,13.81
2019-02-21T12:22:47.542Z,13.25
2019-02-21T12:25:21.064Z,13.74
2019-02-21T12:27:49.397Z,13.51
2019-02-21T12:30:19.365Z,13.60
2019-02-21T12:32:48.114Z,14.09
2019-02-21T12:35:16.801Z,14.35
2019-02-21T12:37:45.496Z,14.36
2019-02-21T12:40:21.840Z,14.45
2019-02-21T12:42:50.152Z,13.78
2019-02-21T12:45:20.781Z,13.72
2019-02-21T12:47:53.339Z,13.49
2019-02-21T12:50:19.185Z,13.60
2019-02-21T12:52:47.502Z,13.86
2019-02-21T12:55:27.081Z,13.82
2019-02-21T12:57:45.926Z,13.65
2019-02-21T13:00:16.939Z,13.33
2019-02-21T13:02:45.240Z,13.48
2019-02-21T13:05:13.630Z,13.34
2019-02-21T13:07:41.935Z,13.98
2019-02-21T13:10:12.975Z,13.25
2019-02-21T13:12:41.357Z,13.07
2019-02-21T13:15:12.380Z,13.44
2019-02-21T13:17:40.706Z,13.34
2019-02-21T13:20:11.628Z,13.23
2019-02-21T13:22:39.979Z,13.03
2019-02-21T13:25:11.388Z,13.00
2019-02-21T13:27:39.697Z,13.21
2019-02-21T13:30:10.765Z,12.93
2019-02-21T13:32:39.136Z,12.98
2019-02-21T13:35:09.011Z,12.75
2019-02-21T13:37:37.377Z,12.85
2019-02-21T13:40:15.571Z,13.05
2019-02-21T13:42:43.892Z,12.89
2019-02-21T13:45:17.210Z,13.25
2019-02-21T13:47:44.812Z,13.15
2019-02-21T13:50:15.847Z,13.24
2019-02-21T13:52:44.146Z,13.01
2019-02-21T13:55:12.541Z,13.12
2019-02-21T13:57:40.923Z,13.61
2019-02-21T14:00:12.398Z,12.43
2019-02-21T14:02:40.727Z,13.29
2019-02-21T14:05:09.182Z,13.59
2019-02-21T14:07:37.537Z,13.03
2019-02-21T14:10:08.455Z,12.93
2019-02-21T14:12:36.832Z,13.05
2019-02-21T14:15:08.555Z,13.02
2019-02-21T14:17:36.865Z,12.44
2019-02-21T14:20:07.524Z,12.54
2019-02-21T14:22:35.839Z,12.16
2019-02-21T14:25:06.392Z,12.31
2019-02-21T14:27:35.026Z,12.24
2019-02-21T14:30:04.669Z,11.88
2019-02-21T14:32:32.980Z,12.09
2019-02-21T14:35:01.319Z,12.07
2019-02-21T14:37:29.624Z,12.29
2019-02-21T14:39:57.978Z,12.11
2019-02-21T14:42:26.283Z,12.35
2019-02-21T14:44:54.581Z,11.88
2019-02-21T14:47:22.908Z,12.12
2019-02-21T14:49:51.222Z,12.00
2019-02-21T14:52:19.848Z,11.90
2019-02-21T14:54:48.555Z,11.86
2019-02-21T14:57:16.851Z,11.82
2019-02-21T14:59:45.176Z,11.91
2019-02-21T15:02:13.472Z,11.91
2019-02-21T15:04:41.811Z,11.68
2019-02-21T15:07:10.203Z,11.75
2019-02-21T15:09:38.511Z,11.74
2019-02-21T15:12:07.228Z,11.66
2019-02-21T15:14:35.521Z,11.70
2019-02-21T15:17:04.108Z,11.88
2019-02-21T15:19:32.446Z,11.74
2019-02-21T15:22:00.790Z,11.74
2019-02-21T15:24:29.114Z,11.86
2019-02-21T15:27:07.915Z,11.84
2019-02-21T15:29:27.742Z,11.86
2019-02-21T15:31:56.049Z,11.70
2019-02-21T15:34:24.387Z,11.55
2019-02-21T15:36:52.696Z,11.61
2019-02-21T15:39:21.007Z,11.49
2019-02-21T15:41:49.334Z,11.50
2019-02-21T15:44:17.643Z,11.66
2019-02-21T15:46:46.296Z,11.71
2019-02-21T15:49:14.596Z,11.79
2019-02-21T15:51:42.906Z,11.86
2019-02-21T15:54:12.551Z,11.69
2019-02-21T15:56:41.915Z,11.66
2019-02-21T15:59:10.260Z,11.65
2019-02-21T16:01:46.915Z,11.77
2019-02-21T16:04:08.678Z,11.75
2019-02-21T16:06:38.054Z,11.66
2019-02-21T16:09:15.851Z,11.63
2019-02-21T16:11:38.036Z,11.67
2019-02-21T16:14:06.354Z,11.52
2019-02-21T16:16:34.731Z,11.59
2019-02-21T16:19:03.349Z,11.43
2019-02-21T16:21:32.034Z,11.33
2019-02-21T16:24:00.371Z,11.41
2019-02-21T16:26:28.681Z,11.33
2019-02-21T16:28:56.981Z,11.38
2019-02-21T16:31:25.306Z,11.25
2019-02-21T16:33:53.945Z,11.34
2019-02-21T16:36:22.290Z,11.20
2019-02-21T16:38:50.680Z,11.14
2019-02-21T16:41:18.987Z,11.16
2019-02-21T16:43:47.324Z,11.18
2019-02-21T16:46:15.635Z,11.16
2019-02-21T16:48:43.963Z,11.25
2019-02-21T16:51:13.159Z,11.30
2019-02-21T16:53:41.511Z,11.27
2019-02-21T16:56:10.390Z,11.15
2019-02-21T16:58:38.701Z,10.90
2019-02-21T17:01:07.367Z,10.90
2019-02-21T17:03:35.686Z,10.81
2019-02-21T17:06:04.018Z,11.05
2019-02-21T17:08:32.398Z,11.09
2019-02-21T17:11:00.737Z,11.12
2019-02-21T17:13:29.121Z,11.08
2019-02-21T17:15:57.423Z,11.14
2019-02-21T17:18:25.749Z,11.07
2019-02-21T17:20:54.081Z,11.19
2019-02-21T17:23:23.174Z,11.09
2019-02-21T17:25:52.155Z,11.28
2019-02-21T17:28:20.458Z,11.08
2019-02-21T17:30:48.782Z,11.25
2019-02-21T17:33:17.460Z,11.28
2019-02-21T17:35:45.812Z,11.21
2019-02-21T17:38:14.562Z,11.32
2019-02-21T17:40:43.109Z,11.13
2019-02-21T17:43:11.434Z,11.08
2019-02-21T17:45:39.748Z,11.14
2019-02-21T17:48:08.081Z,10.97
2019-02-21T17:50:36.454Z,10.94
2019-02-21T17:53:05.228Z,10.81
2019-02-21T17:55:33.624Z,10.75
2019-02-21T17:58:02.020Z,10.76
2019-02-21T18:00:34.938Z,10.75
2019-02-21T18:03:04.685Z,10.73
2019-02-21T18:05:33.207Z,10.80
2019-02-21T18:08:01.572Z,10.77
2019-02-21T18:10:29.885Z,10.82
2019-02-21T18:12:58.294Z,10.67
2019-02-21T18:15:26.606Z,10.61
2019-02-21T18:17:55.877Z,10.70
2019-02-21T18:20:24.276Z,10.58
2019-02-21T18:22:52.585Z,10.59
2019-02-21T18:25:24.321Z,10.61
2019-02-21T18:27:55.845Z,10.68
2019-02-21T18:30:24.241Z,10.64
2019-02-21T18:32:52.543Z,10.65
2019-02-21T18:35:20.867Z,10.52
2019-02-21T18:37:49.242Z,10.50
2019-02-21T18:40:25.451Z,10.42
2019-02-21T18:42:53.826Z,10.36
2019-02-21T18:45:22.312Z,10.42
2019-02-21T18:47:50.639Z,10.32
2019-02-21T18:50:19.017Z,10.24
2019-02-21T18:52:47.359Z,10.01
2019-02-21T18:55:16.070Z,10.00
2019-02-21T18:57:44.380Z,9.94
2019-02-21T19:00:24.101Z,9.82
2019-02-21T19:02:52.536Z,9.92
2019-02-21T19:05:21.714Z,10.11
2019-02-21T19:07:58.503Z,10.15
2019-02-21T19:10:21.325Z,10.16
2019-02-21T19:12:49.730Z,10.19
2019-02-21T19:15:20.251Z,10.25
2019-02-21T19:17:48.666Z,10.23
2019-02-21T19:20:21.567Z,10.23
2019-02-21T19:22:49.944Z,10.37
2019-02-21T19:25:21.476Z,10.35
2019-02-21T19:27:49.811Z,10.39
2019-02-21T19:30:21.782Z,10.34
2019-02-21T19:32:50.155Z,10.40
2019-02-21T19:35:18.542Z,10.47
2019-02-21T19:37:47.003Z,10.44
2019-02-21T19:40:34.754Z,10.41
2019-02-21T19:43:03.186Z,10.66
2019-02-21T19:45:31.562Z,10.49
2019-02-21T19:47:59.871Z,10.54
2019-02-21T19:50:28.218Z,10.54
2019-02-21T19:52:56.596Z,10.54
2019-02-21T19:55:25.155Z,10.56
2019-02-21T19:57:53.598Z,10.66
2019-02-21T20:00:25.343Z,10.57
2019-02-21T20:02:54.567Z,10.73
2019-02-21T20:05:23.398Z,10.75
2019-02-21T20:07:51.726Z,10.67
2019-02-21T20:10:20.107Z,10.63
2019-02-21T20:12:48.597Z,10.64
2019-02-21T20:15:17.338Z,10.60
2019-02-21T20:17:45.647Z,10.63
2019-02-21T20:20:22.734Z,10.56
2019-02-21T20:22:51.793Z,10.45
2019-02-21T20:25:20.130Z,10.46
2019-02-21T20:27:48.443Z,10.30
2019-02-21T20:30:20.045Z,10.27
2019-02-21T20:32:48.423Z,10.11
2019-02-21T20:35:16.870Z,9.99
2019-02-21T20:37:45.478Z,10.10
2019-02-21T20:40:13.855Z,9.99
2019-02-21T20:42:42.240Z,9.91
2019-02-21T20:45:12.081Z,9.89
2019-02-21T20:47:40.413Z,9.85
2019-02-21T20:50:10.645Z,9.88
2019-02-21T20:52:38.954Z,9.78
2019-02-21T20:55:08.629Z,9.74
2019-02-21T20:57:37.077Z,9.67
2019-02-21T21:00:08.581Z,9.66
2019-02-21T21:02:37.227Z,9.55
2019-02-21T21:05:05.598Z,9.56
2019-02-21T21:07:33.926Z,9.57
2019-02-21T21:10:02.302Z,9.47
2019-02-21T21:12:30.745Z,9.63
2019-02-21T21:14:59.060Z,9.66
2019-02-21T21:17:27.667Z,9.65
2019-02-21T21:19:55.985Z,9.61
2019-02-21T21:22:24.363Z,9.55
2019-02-21T21:24:52.980Z,9.57
2019-02-21T21:27:21.298Z,9.56
2019-02-21T21:29:49.596Z,9.49
2019-02-21T21:32:18.521Z,9.39
2019-02-21T21:34:46.834Z,9.43
2019-02-21T21:37:15.179Z,9.43
2019-02-21T21:39:43.577Z,9.40
2019-02-21T21:42:11.886Z,9.45
2019-02-21T21:44:40.204Z,9.50
2019-02-21T21:47:08.573Z,9.54
2019-02-21T21:49:36.925Z,9.53
2019-02-21T21:52:05.219Z,9.52
2019-02-21T21:54:33.518Z,9.64
2019-02-21T21:57:01.835Z,9.71
2019-02-21T21:59:30.144Z,9.49
2019-02-21T22:01:58.479Z,9.51
2019-02-21T22:04:26.850Z,9.51
2019-02-21T22:06:55.287Z,9.67
2019-02-21T22:09:24.242Z,9.71
2019-02-21T22:11:52.538Z,9.81
2019-02-21T22:14:21.157Z,9.65
2019-02-21T22:16:49.528Z,9.82
2019-02-21T22:19:17.866Z,9.73
2019-02-21T22:21:46.172Z,9.74
2019-02-21T22:24:14.469Z,9.73
2019-02-21T22:26:42.868Z,9.58
2019-02-21T22:29:11.171Z,9.53
2019-02-21T22:31:39.573Z,9.58
2019-02-21T22:34:07.950Z,9.68
2019-02-21T22:36:36.245Z,9.68
2019-02-21T22:39:15.911Z,9.72
2019-02-21T22:41:36.905Z,9.66
2019-02-21T22:44:05.522Z,9.67
2019-02-21T22:46:33.828Z,9.71
2019-02-21T22:49:02.494Z,9.68
2019-02-21T22:51:30.795Z,9.83
2019-02-21T22:53:59.149Z,9.59
2019-02-21T22:56:27.876Z,9.68
2019-02-21T22:58:56.633Z,9.66
2019-02-21T23:01:27.638Z,9.62
2019-02-21T23:03:59.141Z,9.63
2019-02-21T23:06:42.977Z,9.68
2019-02-21T23:09:26.971Z,9.51
2019-02-21T23:11:49.002Z,9.53
2019-02-21T23:14:19.373Z,9.56
2019-02-21T23:16:47.766Z,9.48
2019-02-21T23:19:16.157Z,9.37
2019-02-21T23:21:44.457Z,9.28
2019-02-21T23:24:12.859Z,9.52
2019-02-21T23:26:41.546Z,9.51
2019-02-21T23:29:09.915Z,9.52
2019-02-21T23:31:38.238Z,9.53
2019-02-21T23:34:08.262Z,9.44
2019-02-21T23:36:36.585Z,9.39
2019-02-21T23:39:05.931Z,9.54
2019-02-21T23:41:34.702Z,9.66
2019-02-21T23:44:03.074Z,9.48
2019-02-21T23:46:31.371Z,9.70
2019-02-21T23:48:59.690Z,9.66
2019-02-21T23:51:27.987Z,9.75
2019-02-21T23:54:03.154Z,9.80
2019-02-21T23:56:26.360Z,9.74
2019-02-21T23:58:54.667Z,9.69
